sensor_id;sensor_type;location;lat;lon;timestamp;temperature;humidity
19847;DHT22;10084;50.518;8.588;2022-09-09T00:02:23;16.60;63.70
19847;DHT22;10084;50.518;8.588;2022-09-09T00:07:51;16.70;63.90
19847;DHT22;10084;50.518;8.588;2022-09-09T00:10:25;16.70;64.00
19847;DHT22;10084;50.518;8.588;2022-09-09T00:18:32;16.60;64.10
19847;DHT22;10084;50.518;8.588;2022-09-09T00:21:13;16.70;64.30
19847;DHT22;10084;50.518;8.588;2022-09-09T00:23:53;16.70;64.40
19847;DHT22;10084;50.518;8.588;2022-09-09T00:26:51;16.70;64.50
19847;DHT22;10084;50.518;8.588;2022-09-09T00:29:37;16.70;64.50
19847;DHT22;10084;50.518;8.588;2022-09-09T00:32:13;16.70;64.60
19847;DHT22;10084;50.518;8.588;2022-09-09T00:34:51;16.70;64.70
19847;DHT22;10084;50.518;8.588;2022-09-09T00:37:19;16.70;64.80
19847;DHT22;10084;50.518;8.588;2022-09-09T00:39:47;16.70;64.90
19847;DHT22;10084;50.518;8.588;2022-09-09T00:42:25;16.70;65.00
19847;DHT22;10084;50.518;8.588;2022-09-09T00:47:50;16.70;65.10
19847;DHT22;10084;50.518;8.588;2022-09-09T00:50:37;16.70;65.10
19847;DHT22;10084;50.518;8.588;2022-09-09T00:58:34;16.70;65.30
19847;DHT22;10084;50.518;8.588;2022-09-09T01:01:06;16.70;65.30
19847;DHT22;10084;50.518;8.588;2022-09-09T01:03:35;16.70;64.90
19847;DHT22;10084;50.518;8.588;2022-09-09T01:06:21;16.70;65.50
19847;DHT22;10084;50.518;8.588;2022-09-09T01:12:15;16.60;65.50
19847;DHT22;10084;50.518;8.588;2022-09-09T01:14:48;16.50;65.60
19847;DHT22;10084;50.518;8.588;2022-09-09T01:17:24;16.50;65.70
19847;DHT22;10084;50.518;8.588;2022-09-09T01:20:13;16.50;65.80
19847;DHT22;10084;50.518;8.588;2022-09-09T01:28:29;16.40;66.00
19847;DHT22;10084;50.518;8.588;2022-09-09T01:31:03;16.40;66.10
19847;DHT22;10084;50.518;8.588;2022-09-09T01:33:35;16.40;66.20
19847;DHT22;10084;50.518;8.588;2022-09-09T01:38:55;16.40;66.40
19847;DHT22;10084;50.518;8.588;2022-09-09T01:41:21;16.40;66.40
19847;DHT22;10084;50.518;8.588;2022-09-09T01:43:55;16.40;66.50
19847;DHT22;10084;50.518;8.588;2022-09-09T01:46:22;16.50;66.50
19847;DHT22;10084;50.518;8.588;2022-09-09T01:48:51;16.50;66.50
19847;DHT22;10084;50.518;8.588;2022-09-09T01:51:18;16.50;66.70
19847;DHT22;10084;50.518;8.588;2022-09-09T01:53:45;16.50;66.70
19847;DHT22;10084;50.518;8.588;2022-09-09T01:59:09;16.60;66.70
19847;DHT22;10084;50.518;8.588;2022-09-09T02:01:54;16.70;66.70
19847;DHT22;10084;50.518;8.588;2022-09-09T02:07:00;16.70;66.60
19847;DHT22;10084;50.518;8.588;2022-09-09T02:09:30;16.70;66.70
19847;DHT22;10084;50.518;8.588;2022-09-09T02:12:02;16.70;66.70
19847;DHT22;10084;50.518;8.588;2022-09-09T02:14:42;16.70;66.70
19847;DHT22;10084;50.518;8.588;2022-09-09T02:17:11;16.70;66.70
19847;DHT22;10084;50.518;8.588;2022-09-09T02:20:12;16.60;66.80
19847;DHT22;10084;50.518;8.588;2022-09-09T02:22:56;16.60;66.90
19847;DHT22;10084;50.518;8.588;2022-09-09T02:25:26;16.70;67.00
19847;DHT22;10084;50.518;8.588;2022-09-09T02:27:58;16.70;67.00
19847;DHT22;10084;50.518;8.588;2022-09-09T02:30:24;16.70;67.00
19847;DHT22;10084;50.518;8.588;2022-09-09T02:32:56;16.70;67.00
19847;DHT22;10084;50.518;8.588;2022-09-09T02:35:29;16.80;67.10
19847;DHT22;10084;50.518;8.588;2022-09-09T02:37:59;16.80;67.00
19847;DHT22;10084;50.518;8.588;2022-09-09T02:40:27;16.90;67.00
19847;DHT22;10084;50.518;8.588;2022-09-09T02:42:58;17.00;67.00
19847;DHT22;10084;50.518;8.588;2022-09-09T02:45:32;17.00;67.10
19847;DHT22;10084;50.518;8.588;2022-09-09T02:48:18;17.00;67.00
19847;DHT22;10084;50.518;8.588;2022-09-09T02:54:16;17.10;67.00
19847;DHT22;10084;50.518;8.588;2022-09-09T02:56:48;17.20;67.10
19847;DHT22;10084;50.518;8.588;2022-09-09T02:59:16;17.20;67.20
19847;DHT22;10084;50.518;8.588;2022-09-09T03:01:42;17.20;67.10
19847;DHT22;10084;50.518;8.588;2022-09-09T03:04:09;17.30;67.10
19847;DHT22;10084;50.518;8.588;2022-09-09T03:06:35;17.30;67.10
19847;DHT22;10084;50.518;8.588;2022-09-09T03:09:11;17.30;67.10
19847;DHT22;10084;50.518;8.588;2022-09-09T03:11:38;17.30;67.00
19847;DHT22;10084;50.518;8.588;2022-09-09T03:14:04;17.30;67.00
19847;DHT22;10084;50.518;8.588;2022-09-09T03:16:31;17.30;67.00
19847;DHT22;10084;50.518;8.588;2022-09-09T03:18:58;17.30;67.00
19847;DHT22;10084;50.518;8.588;2022-09-09T03:21:24;17.30;67.10
19847;DHT22;10084;50.518;8.588;2022-09-09T03:23:50;17.30;67.10
19847;DHT22;10084;50.518;8.588;2022-09-09T03:26:16;17.30;67.10
19847;DHT22;10084;50.518;8.588;2022-09-09T03:28:45;17.30;67.20
19847;DHT22;10084;50.518;8.588;2022-09-09T03:31:12;17.30;67.20
19847;DHT22;10084;50.518;8.588;2022-09-09T03:33:40;17.30;67.30
19847;DHT22;10084;50.518;8.588;2022-09-09T03:36:08;17.20;67.30
19847;DHT22;10084;50.518;8.588;2022-09-09T03:38:34;17.20;67.40
19847;DHT22;10084;50.518;8.588;2022-09-09T03:41:00;17.20;67.40
19847;DHT22;10084;50.518;8.588;2022-09-09T03:43:28;17.20;67.50
19847;DHT22;10084;50.518;8.588;2022-09-09T03:45:55;17.20;67.60
19847;DHT22;10084;50.518;8.588;2022-09-09T03:48:26;17.20;67.60
19847;DHT22;10084;50.518;8.588;2022-09-09T03:50:54;17.10;67.50
19847;DHT22;10084;50.518;8.588;2022-09-09T03:53:22;17.00;67.60
19847;DHT22;10084;50.518;8.588;2022-09-09T03:55:50;17.00;67.80
19847;DHT22;10084;50.518;8.588;2022-09-09T03:58:18;17.00;67.90
19847;DHT22;10084;50.518;8.588;2022-09-09T04:01:05;16.90;67.90
19847;DHT22;10084;50.518;8.588;2022-09-09T04:03:31;16.90;68.00
19847;DHT22;10084;50.518;8.588;2022-09-09T04:05:58;16.90;68.10
19847;DHT22;10084;50.518;8.588;2022-09-09T04:08:26;16.90;68.10
19847;DHT22;10084;50.518;8.588;2022-09-09T04:10:53;17.00;68.10
19847;DHT22;10084;50.518;8.588;2022-09-09T04:13:24;17.00;68.20
19847;DHT22;10084;50.518;8.588;2022-09-09T04:15:51;17.00;68.20
19847;DHT22;10084;50.518;8.588;2022-09-09T04:18:17;17.00;68.20
19847;DHT22;10084;50.518;8.588;2022-09-09T04:20:49;17.00;68.20
19847;DHT22;10084;50.518;8.588;2022-09-09T04:23:17;17.00;68.20
19847;DHT22;10084;50.518;8.588;2022-09-09T04:25:49;16.90;68.30
19847;DHT22;10084;50.518;8.588;2022-09-09T04:28:16;16.90;68.20
19847;DHT22;10084;50.518;8.588;2022-09-09T04:30:43;16.90;68.20
19847;DHT22;10084;50.518;8.588;2022-09-09T04:33:09;16.90;68.20
19847;DHT22;10084;50.518;8.588;2022-09-09T04:35:36;16.80;68.20
19847;DHT22;10084;50.518;8.588;2022-09-09T04:38:04;16.80;68.30
19847;DHT22;10084;50.518;8.588;2022-09-09T04:40:32;16.80;68.40
19847;DHT22;10084;50.518;8.588;2022-09-09T04:42:59;16.80;68.50
19847;DHT22;10084;50.518;8.588;2022-09-09T04:45:25;16.80;68.60
19847;DHT22;10084;50.518;8.588;2022-09-09T04:47:53;16.80;68.60
19847;DHT22;10084;50.518;8.588;2022-09-09T04:50:20;16.70;68.60
19847;DHT22;10084;50.518;8.588;2022-09-09T04:52:46;16.70;68.60
19847;DHT22;10084;50.518;8.588;2022-09-09T04:55:12;16.70;68.70
19847;DHT22;10084;50.518;8.588;2022-09-09T04:57:40;16.70;68.80
19847;DHT22;10084;50.518;8.588;2022-09-09T05:00:10;16.70;68.80
19847;DHT22;10084;50.518;8.588;2022-09-09T05:02:40;16.70;68.80
19847;DHT22;10084;50.518;8.588;2022-09-09T05:05:08;16.70;69.50
19847;DHT22;10084;50.518;8.588;2022-09-09T05:07:34;16.70;68.90
19847;DHT22;10084;50.518;8.588;2022-09-09T05:10:00;16.70;69.00
19847;DHT22;10084;50.518;8.588;2022-09-09T05:12:31;16.70;69.00
19847;DHT22;10084;50.518;8.588;2022-09-09T05:14:57;16.80;69.20
19847;DHT22;10084;50.518;8.588;2022-09-09T05:17:23;16.80;69.20
19847;DHT22;10084;50.518;8.588;2022-09-09T05:19:49;16.80;69.10
19847;DHT22;10084;50.518;8.588;2022-09-09T05:22:19;16.90;69.20
19847;DHT22;10084;50.518;8.588;2022-09-09T05:24:46;16.90;69.20
19847;DHT22;10084;50.518;8.588;2022-09-09T05:27:12;16.90;69.20
19847;DHT22;10084;50.518;8.588;2022-09-09T05:29:39;16.90;69.20
19847;DHT22;10084;50.518;8.588;2022-09-09T05:32:08;17.00;69.20
19847;DHT22;10084;50.518;8.588;2022-09-09T05:34:35;16.90;69.30
19847;DHT22;10084;50.518;8.588;2022-09-09T05:37:03;16.90;69.40
19847;DHT22;10084;50.518;8.588;2022-09-09T05:39:33;17.00;69.40
19847;DHT22;10084;50.518;8.588;2022-09-09T05:42:05;17.00;69.50
19847;DHT22;10084;50.518;8.588;2022-09-09T05:44:33;17.10;69.50
19847;DHT22;10084;50.518;8.588;2022-09-09T05:47:00;17.20;69.60
19847;DHT22;10084;50.518;8.588;2022-09-09T05:49:32;17.20;69.50
19847;DHT22;10084;50.518;8.588;2022-09-09T05:51:58;17.30;69.60
19847;DHT22;10084;50.518;8.588;2022-09-09T05:54:24;17.40;69.50
19847;DHT22;10084;50.518;8.588;2022-09-09T05:56:51;17.40;69.40
19847;DHT22;10084;50.518;8.588;2022-09-09T05:59:19;17.50;69.40
19847;DHT22;10084;50.518;8.588;2022-09-09T06:01:54;17.50;69.30
19847;DHT22;10084;50.518;8.588;2022-09-09T06:04:26;17.60;69.30
19847;DHT22;10084;50.518;8.588;2022-09-09T06:06:52;17.60;69.20
19847;DHT22;10084;50.518;8.588;2022-09-09T06:09:20;17.70;69.20
19847;DHT22;10084;50.518;8.588;2022-09-09T06:11:46;17.70;69.20
19847;DHT22;10084;50.518;8.588;2022-09-09T06:14:16;17.80;69.20
19847;DHT22;10084;50.518;8.588;2022-09-09T06:16:46;17.80;69.20
19847;DHT22;10084;50.518;8.588;2022-09-09T06:19:17;17.90;69.20
19847;DHT22;10084;50.518;8.588;2022-09-09T06:21:43;17.90;69.20
19847;DHT22;10084;50.518;8.588;2022-09-09T06:24:10;18.00;69.20
19847;DHT22;10084;50.518;8.588;2022-09-09T06:26:39;18.00;69.20
19847;DHT22;10084;50.518;8.588;2022-09-09T06:29:10;18.10;69.30
19847;DHT22;10084;50.518;8.588;2022-09-09T06:31:37;18.20;69.30
19847;DHT22;10084;50.518;8.588;2022-09-09T06:34:08;18.20;69.40
19847;DHT22;10084;50.518;8.588;2022-09-09T06:36:38;18.30;69.40
19847;DHT22;10084;50.518;8.588;2022-09-09T06:39:05;18.50;69.50
19847;DHT22;10084;50.518;8.588;2022-09-09T06:41:33;18.80;69.80
19847;DHT22;10084;50.518;8.588;2022-09-09T06:44:00;19.30;70.10
19847;DHT22;10084;50.518;8.588;2022-09-09T06:46:40;19.90;69.60
19847;DHT22;10084;50.518;8.588;2022-09-09T06:49:08;20.30;68.90
19847;DHT22;10084;50.518;8.588;2022-09-09T06:51:36;20.40;68.10
19847;DHT22;10084;50.518;8.588;2022-09-09T06:54:03;20.50;68.00
19847;DHT22;10084;50.518;8.588;2022-09-09T06:56:33;20.90;68.60
19847;DHT22;10084;50.518;8.588;2022-09-09T06:59:06;21.60;68.60
19847;DHT22;10084;50.518;8.588;2022-09-09T07:01:39;22.30;68.50
19847;DHT22;10084;50.518;8.588;2022-09-09T07:04:12;23.10;91.50
19847;DHT22;10084;50.518;8.588;2022-09-09T07:06:43;24.00;91.90
19847;DHT22;10084;50.518;8.588;2022-09-09T07:09:13;24.90;81.80
19847;DHT22;10084;50.518;8.588;2022-09-09T07:11:44;25.70;92.80
19847;DHT22;10084;50.518;8.588;2022-09-09T07:14:12;26.30;78.30
19847;DHT22;10084;50.518;8.588;2022-09-09T07:16:40;26.20;77.40
19847;DHT22;10084;50.518;8.588;2022-09-09T07:19:06;25.90;87.70
19847;DHT22;10084;50.518;8.588;2022-09-09T07:21:32;25.60;85.10
19847;DHT22;10084;50.518;8.588;2022-09-09T07:23:58;24.70;80.90
19847;DHT22;10084;50.518;8.588;2022-09-09T07:26:27;24.70;85.30
19847;DHT22;10084;50.518;8.588;2022-09-09T07:28:54;24.40;88.80
19847;DHT22;10084;50.518;8.588;2022-09-09T07:31:28;24.00;90.00
19847;DHT22;10084;50.518;8.588;2022-09-09T07:33:56;23.70;83.80
19847;DHT22;10084;50.518;8.588;2022-09-09T07:36:24;23.40;88.50
19847;DHT22;10084;50.518;8.588;2022-09-09T07:38:54;23.20;90.00
19847;DHT22;10084;50.518;8.588;2022-09-09T07:41:23;23.00;90.50
19847;DHT22;10084;50.518;8.588;2022-09-09T07:43:50;22.90;91.10
19847;DHT22;10084;50.518;8.588;2022-09-09T07:46:18;23.00;81.00
19847;DHT22;10084;50.518;8.588;2022-09-09T07:48:46;23.00;80.30
19847;DHT22;10084;50.518;8.588;2022-09-09T07:51:17;23.10;84.80
19847;DHT22;10084;50.518;8.588;2022-09-09T07:53:44;23.20;88.70
19847;DHT22;10084;50.518;8.588;2022-09-09T07:56:13;23.30;88.30
19847;DHT22;10084;50.518;8.588;2022-09-09T07:58:40;23.40;87.60
19847;DHT22;10084;50.518;8.588;2022-09-09T08:01:12;23.60;87.40
19847;DHT22;10084;50.518;8.588;2022-09-09T08:03:38;23.70;80.90
19847;DHT22;10084;50.518;8.588;2022-09-09T08:06:06;23.80;79.80
19847;DHT22;10084;50.518;8.588;2022-09-09T08:08:34;23.80;83.20
19847;DHT22;10084;50.518;8.588;2022-09-09T08:11:06;23.80;85.00
19847;DHT22;10084;50.518;8.588;2022-09-09T08:13:34;23.80;84.60
19847;DHT22;10084;50.518;8.588;2022-09-09T08:16:05;23.80;82.90
19847;DHT22;10084;50.518;8.588;2022-09-09T08:18:31;23.60;84.50
19847;DHT22;10084;50.518;8.588;2022-09-09T08:20:57;23.50;85.00
19847;DHT22;10084;50.518;8.588;2022-09-09T08:23:23;23.20;79.20
19847;DHT22;10084;50.518;8.588;2022-09-09T08:25:49;23.70;85.50
19847;DHT22;10084;50.518;8.588;2022-09-09T08:28:15;24.20;86.90
19847;DHT22;10084;50.518;8.588;2022-09-09T08:30:41;25.10;87.60
19847;DHT22;10084;50.518;8.588;2022-09-09T08:33:09;26.20;90.10
19847;DHT22;10084;50.518;8.588;2022-09-09T08:35:34;27.30;90.10
19847;DHT22;10084;50.518;8.588;2022-09-09T08:38:01;28.10;92.20
19847;DHT22;10084;50.518;8.588;2022-09-09T08:40:33;28.80;80.80
19847;DHT22;10084;50.518;8.588;2022-09-09T08:43:04;28.90;78.20
19847;DHT22;10084;50.518;8.588;2022-09-09T08:45:37;28.70;78.00
19847;DHT22;10084;50.518;8.588;2022-09-09T08:48:15;28.70;78.90
19847;DHT22;10084;50.518;8.588;2022-09-09T08:50:44;28.40;79.20
19847;DHT22;10084;50.518;8.588;2022-09-09T08:53:27;28.20;78.60
19847;DHT22;10084;50.518;8.588;2022-09-09T08:56:09;27.80;78.40
19847;DHT22;10084;50.518;8.588;2022-09-09T08:58:47;28.10;79.30
19847;DHT22;10084;50.518;8.588;2022-09-09T09:04:38;30.30;60.30
19847;DHT22;10084;50.518;8.588;2022-09-09T09:10:00;32.40;56.50
19847;DHT22;10084;50.518;8.588;2022-09-09T09:12:39;33.10;55.00
19847;DHT22;10084;50.518;8.588;2022-09-09T09:15:29;33.70;54.30
19847;DHT22;10084;50.518;8.588;2022-09-09T09:17:56;34.60;53.90
19847;DHT22;10084;50.518;8.588;2022-09-09T09:20:49;35.30;52.70
19847;DHT22;10084;50.518;8.588;2022-09-09T09:23:25;36.00;51.40
19847;DHT22;10084;50.518;8.588;2022-09-09T09:25:59;36.60;50.70
19847;DHT22;10084;50.518;8.588;2022-09-09T09:28:29;37.30;49.90
19847;DHT22;10084;50.518;8.588;2022-09-09T09:31:04;37.90;49.00
19847;DHT22;10084;50.518;8.588;2022-09-09T09:33:46;38.30;48.80
19847;DHT22;10084;50.518;8.588;2022-09-09T09:36:13;38.30;46.50
19847;DHT22;10084;50.518;8.588;2022-09-09T09:38:56;38.00;45.30
19847;DHT22;10084;50.518;8.588;2022-09-09T09:41:38;37.00;43.70
19847;DHT22;10084;50.518;8.588;2022-09-09T09:44:18;36.30;43.90
19847;DHT22;10084;50.518;8.588;2022-09-09T09:46:46;35.80;43.20
19847;DHT22;10084;50.518;8.588;2022-09-09T09:49:13;35.40;43.50
19847;DHT22;10084;50.518;8.588;2022-09-09T09:51:39;35.50;43.40
19847;DHT22;10084;50.518;8.588;2022-09-09T09:54:13;35.80;43.30
19847;DHT22;10084;50.518;8.588;2022-09-09T09:56:47;36.10;42.70
19847;DHT22;10084;50.518;8.588;2022-09-09T10:01:47;36.40;42.10
19847;DHT22;10084;50.518;8.588;2022-09-09T10:04:21;36.80;41.60
19847;DHT22;10084;50.518;8.588;2022-09-09T10:06:51;36.40;40.70
19847;DHT22;10084;50.518;8.588;2022-09-09T10:09:25;35.50;39.80
19847;DHT22;10084;50.518;8.588;2022-09-09T10:12:24;34.10;39.90
19847;DHT22;10084;50.518;8.588;2022-09-09T10:28:48;28.80;43.20
19847;DHT22;10084;50.518;8.588;2022-09-09T10:31:42;28.60;43.60
19847;DHT22;10084;50.518;8.588;2022-09-09T10:34:32;28.30;43.70
19847;DHT22;10084;50.518;8.588;2022-09-09T10:37:07;27.90;43.90
19847;DHT22;10084;50.518;8.588;2022-09-09T10:39:38;28.40;44.80
19847;DHT22;10084;50.518;8.588;2022-09-09T10:42:09;29.90;44.80
19847;DHT22;10084;50.518;8.588;2022-09-09T10:45:10;31.60;43.80
19847;DHT22;10084;50.518;8.588;2022-09-09T10:50:49;32.00;41.70
19847;DHT22;10084;50.518;8.588;2022-09-09T10:55:44;30.40;42.80
19847;DHT22;10084;50.518;8.588;2022-09-09T10:58:19;29.60;42.70
19847;DHT22;10084;50.518;8.588;2022-09-09T11:00:50;28.60;43.30
19847;DHT22;10084;50.518;8.588;2022-09-09T11:03:26;27.80;44.10
19847;DHT22;10084;50.518;8.588;2022-09-09T11:06:02;27.30;45.10
19847;DHT22;10084;50.518;8.588;2022-09-09T11:08:30;28.20;45.80
19847;DHT22;10084;50.518;8.588;2022-09-09T11:21:48;30.70;44.40
19847;DHT22;10084;50.518;8.588;2022-09-09T11:24:26;31.30;44.80
19847;DHT22;10084;50.518;8.588;2022-09-09T11:26:58;32.30;45.10
19847;DHT22;10084;50.518;8.588;2022-09-09T11:42:46;31.10;43.30
19847;DHT22;10084;50.518;8.588;2022-09-09T11:45:25;30.40;43.60
19847;DHT22;10084;50.518;8.588;2022-09-09T11:47:58;29.90;44.20
19847;DHT22;10084;50.518;8.588;2022-09-09T11:52:51;29.10;44.50
19847;DHT22;10084;50.518;8.588;2022-09-09T11:55:30;28.80;45.10
19847;DHT22;10084;50.518;8.588;2022-09-09T11:58:03;28.90;45.80
19847;DHT22;10084;50.518;8.588;2022-09-09T12:00:44;28.90;45.60
19847;DHT22;10084;50.518;8.588;2022-09-09T12:03:45;28.70;45.30
19847;DHT22;10084;50.518;8.588;2022-09-09T12:06:26;28.30;45.00
19847;DHT22;10084;50.518;8.588;2022-09-09T12:11:41;27.40;45.20
19847;DHT22;10084;50.518;8.588;2022-09-09T12:14:35;27.00;45.20
19847;DHT22;10084;50.518;8.588;2022-09-09T12:17:22;26.80;45.50
19847;DHT22;10084;50.518;8.588;2022-09-09T12:19:59;26.60;45.70
19847;DHT22;10084;50.518;8.588;2022-09-09T12:22:37;26.50;45.90
19847;DHT22;10084;50.518;8.588;2022-09-09T12:25:30;26.50;46.00
19847;DHT22;10084;50.518;8.588;2022-09-09T12:30:56;26.60;45.70
19847;DHT22;10084;50.518;8.588;2022-09-09T12:33:24;26.50;45.50
19847;DHT22;10084;50.518;8.588;2022-09-09T12:35:55;26.50;45.40
19847;DHT22;10084;50.518;8.588;2022-09-09T12:38:43;26.30;45.30
19847;DHT22;10084;50.518;8.588;2022-09-09T12:41:23;26.00;45.30
19847;DHT22;10084;50.518;8.588;2022-09-09T12:43:50;25.90;45.40
19847;DHT22;10084;50.518;8.588;2022-09-09T12:46:31;25.80;45.50
19847;DHT22;10084;50.518;8.588;2022-09-09T12:48:59;25.60;45.60
19847;DHT22;10084;50.518;8.588;2022-09-09T12:51:29;25.40;45.60
19847;DHT22;10084;50.518;8.588;2022-09-09T12:53:56;25.20;45.80
19847;DHT22;10084;50.518;8.588;2022-09-09T12:56:29;25.00;45.70
19847;DHT22;10084;50.518;8.588;2022-09-09T12:58:57;24.90;45.90
19847;DHT22;10084;50.518;8.588;2022-09-09T13:01:26;24.80;46.10
19847;DHT22;10084;50.518;8.588;2022-09-09T13:03:52;24.70;46.20
19847;DHT22;10084;50.518;8.588;2022-09-09T13:06:29;24.60;46.00
19847;DHT22;10084;50.518;8.588;2022-09-09T13:08:57;24.50;46.10
19847;DHT22;10084;50.518;8.588;2022-09-09T13:11:31;24.40;46.50
19847;DHT22;10084;50.518;8.588;2022-09-09T13:13:59;24.20;46.10
19847;DHT22;10084;50.518;8.588;2022-09-09T13:16:28;23.80;46.20
19847;DHT22;10084;50.518;8.588;2022-09-09T13:19:02;23.50;46.60
19847;DHT22;10084;50.518;8.588;2022-09-09T13:21:36;23.20;46.90
19847;DHT22;10084;50.518;8.588;2022-09-09T13:24:25;22.90;47.20
19847;DHT22;10084;50.518;8.588;2022-09-09T13:29:22;22.40;47.90
19847;DHT22;10084;50.518;8.588;2022-09-09T13:31:48;22.30;48.20
19847;DHT22;10084;50.518;8.588;2022-09-09T13:34:31;22.20;48.40
19847;DHT22;10084;50.518;8.588;2022-09-09T13:37:03;22.10;48.50
19847;DHT22;10084;50.518;8.588;2022-09-09T13:39:37;22.10;48.60
19847;DHT22;10084;50.518;8.588;2022-09-09T13:42:03;22.20;48.70
19847;DHT22;10084;50.518;8.588;2022-09-09T13:44:38;22.20;48.80
19847;DHT22;10084;50.518;8.588;2022-09-09T13:47:18;22.30;49.00
19847;DHT22;10084;50.518;8.588;2022-09-09T13:49:44;22.50;49.20
19847;DHT22;10084;50.518;8.588;2022-09-09T13:52:16;22.70;49.30
19847;DHT22;10084;50.518;8.588;2022-09-09T13:54:46;22.90;49.20
19847;DHT22;10084;50.518;8.588;2022-09-09T13:57:23;23.00;49.20
19847;DHT22;10084;50.518;8.588;2022-09-09T13:59:52;23.20;49.10
19847;DHT22;10084;50.518;8.588;2022-09-09T14:02:18;23.20;49.00
19847;DHT22;10084;50.518;8.588;2022-09-09T14:04:44;23.30;49.00
19847;DHT22;10084;50.518;8.588;2022-09-09T14:07:15;23.30;48.80
19847;DHT22;10084;50.518;8.588;2022-09-09T14:09:42;23.30;48.80
19847;DHT22;10084;50.518;8.588;2022-09-09T14:12:11;23.30;48.70
19847;DHT22;10084;50.518;8.588;2022-09-09T14:14:37;23.30;48.80
19847;DHT22;10084;50.518;8.588;2022-09-09T14:17:03;23.40;48.80
19847;DHT22;10084;50.518;8.588;2022-09-09T14:19:29;23.40;48.70
19847;DHT22;10084;50.518;8.588;2022-09-09T14:21:57;23.40;48.70
19847;DHT22;10084;50.518;8.588;2022-09-09T14:24:23;23.40;48.70
19847;DHT22;10084;50.518;8.588;2022-09-09T14:26:49;23.40;48.60
19847;DHT22;10084;50.518;8.588;2022-09-09T14:29:14;23.30;48.50
19847;DHT22;10084;50.518;8.588;2022-09-09T14:31:40;23.10;48.60
19847;DHT22;10084;50.518;8.588;2022-09-09T14:34:06;23.00;48.80
19847;DHT22;10084;50.518;8.588;2022-09-09T14:36:32;22.90;48.80
19847;DHT22;10084;50.518;8.588;2022-09-09T14:38:58;22.80;48.90
19847;DHT22;10084;50.518;8.588;2022-09-09T14:41:24;22.70;49.00
19847;DHT22;10084;50.518;8.588;2022-09-09T14:43:50;22.70;49.20
19847;DHT22;10084;50.518;8.588;2022-09-09T14:46:19;22.70;49.40
19847;DHT22;10084;50.518;8.588;2022-09-09T14:48:45;22.70;49.50
19847;DHT22;10084;50.518;8.588;2022-09-09T14:51:22;22.70;49.60
19847;DHT22;10084;50.518;8.588;2022-09-09T14:53:51;22.70;49.80
19847;DHT22;10084;50.518;8.588;2022-09-09T14:56:19;22.70;49.90
19847;DHT22;10084;50.518;8.588;2022-09-09T14:58:46;22.60;50.00
19847;DHT22;10084;50.518;8.588;2022-09-09T15:01:15;22.70;50.00
19847;DHT22;10084;50.518;8.588;2022-09-09T15:03:47;22.70;50.10
19847;DHT22;10084;50.518;8.588;2022-09-09T15:06:14;22.60;50.00
19847;DHT22;10084;50.518;8.588;2022-09-09T15:08:42;22.60;50.10
19847;DHT22;10084;50.518;8.588;2022-09-09T15:11:09;22.50;50.20
19847;DHT22;10084;50.518;8.588;2022-09-09T15:13:36;22.40;50.20
19847;DHT22;10084;50.518;8.588;2022-09-09T15:16:07;22.40;50.30
19847;DHT22;10084;50.518;8.588;2022-09-09T15:18:33;22.30;50.40
19847;DHT22;10084;50.518;8.588;2022-09-09T15:20:59;22.30;50.60
19847;DHT22;10084;50.518;8.588;2022-09-09T15:23:27;22.30;50.70
19847;DHT22;10084;50.518;8.588;2022-09-09T15:25:53;22.40;50.90
19847;DHT22;10084;50.518;8.588;2022-09-09T15:28:20;22.50;51.00
19847;DHT22;10084;50.518;8.588;2022-09-09T15:30:51;22.60;50.90
19847;DHT22;10084;50.518;8.588;2022-09-09T15:33:18;22.70;50.90
19847;DHT22;10084;50.518;8.588;2022-09-09T15:35:44;22.80;50.90
19847;DHT22;10084;50.518;8.588;2022-09-09T15:38:10;22.80;50.70
19847;DHT22;10084;50.518;8.588;2022-09-09T15:43:01;22.80;50.30
19847;DHT22;10084;50.518;8.588;2022-09-09T15:45:28;22.80;50.90
19847;DHT22;10084;50.518;8.588;2022-09-09T15:47:57;22.80;50.70
19847;DHT22;10084;50.518;8.588;2022-09-09T15:50:23;22.70;50.60
19847;DHT22;10084;50.518;8.588;2022-09-09T15:52:49;22.60;50.50
19847;DHT22;10084;50.518;8.588;2022-09-09T15:55:14;22.50;50.50
19847;DHT22;10084;50.518;8.588;2022-09-09T15:57:40;22.30;50.60
19847;DHT22;10084;50.518;8.588;2022-09-09T16:00:06;22.00;50.80
19847;DHT22;10084;50.518;8.588;2022-09-09T16:02:32;21.80;51.00
19847;DHT22;10084;50.518;8.588;2022-09-09T16:04:58;21.60;51.40
19847;DHT22;10084;50.518;8.588;2022-09-09T16:07:24;21.30;51.60
19847;DHT22;10084;50.518;8.588;2022-09-09T16:09:49;21.20;51.90
19847;DHT22;10084;50.518;8.588;2022-09-09T16:12:18;21.00;52.10
19847;DHT22;10084;50.518;8.588;2022-09-09T16:14:44;20.80;52.30
19847;DHT22;10084;50.518;8.588;2022-09-09T16:17:10;20.70;52.50
19847;DHT22;10084;50.518;8.588;2022-09-09T16:19:37;20.60;52.80
19847;DHT22;10084;50.518;8.588;2022-09-09T16:22:04;20.50;53.60
19847;DHT22;10084;50.518;8.588;2022-09-09T16:24:29;20.40;53.00
19847;DHT22;10084;50.518;8.588;2022-09-09T16:26:55;20.40;53.30
19847;DHT22;10084;50.518;8.588;2022-09-09T16:29:22;20.30;53.30
19847;DHT22;10084;50.518;8.588;2022-09-09T16:31:49;20.30;53.40
19847;DHT22;10084;50.518;8.588;2022-09-09T16:34:16;20.30;53.60
19847;DHT22;10084;50.518;8.588;2022-09-09T16:36:43;20.20;53.70
19847;DHT22;10084;50.518;8.588;2022-09-09T16:39:11;20.20;53.80
19847;DHT22;10084;50.518;8.588;2022-09-09T16:41:38;20.20;54.00
19847;DHT22;10084;50.518;8.588;2022-09-09T16:44:06;20.20;54.30
19847;DHT22;10084;50.518;8.588;2022-09-09T16:46:35;20.10;54.50
19847;DHT22;10084;50.518;8.588;2022-09-09T16:49:03;20.10;54.70
19847;DHT22;10084;50.518;8.588;2022-09-09T16:51:31;20.00;54.80
19847;DHT22;10084;50.518;8.588;2022-09-09T16:53:59;19.90;55.00
19847;DHT22;10084;50.518;8.588;2022-09-09T16:56:27;19.90;55.20
19847;DHT22;10084;50.518;8.588;2022-09-09T16:58:59;19.90;55.40
19847;DHT22;10084;50.518;8.588;2022-09-09T17:01:27;19.80;55.60
19847;DHT22;10084;50.518;8.588;2022-09-09T17:03:54;19.80;55.80
19847;DHT22;10084;50.518;8.588;2022-09-09T17:06:21;19.70;55.90
19847;DHT22;10084;50.518;8.588;2022-09-09T17:08:46;19.70;56.00
19847;DHT22;10084;50.518;8.588;2022-09-09T17:11:15;19.70;56.20
19847;DHT22;10084;50.518;8.588;2022-09-09T17:13:42;19.70;56.30
19847;DHT22;10084;50.518;8.588;2022-09-09T17:16:09;19.70;56.40
19847;DHT22;10084;50.518;8.588;2022-09-09T17:18:35;19.70;56.60
19847;DHT22;10084;50.518;8.588;2022-09-09T17:21:06;19.60;57.30
19847;DHT22;10084;50.518;8.588;2022-09-09T17:23:36;19.60;56.80
19847;DHT22;10084;50.518;8.588;2022-09-09T17:26:05;19.60;56.90
19847;DHT22;10084;50.518;8.588;2022-09-09T17:28:34;19.60;57.10
19847;DHT22;10084;50.518;8.588;2022-09-09T17:31:00;19.50;57.10
19847;DHT22;10084;50.518;8.588;2022-09-09T17:33:31;19.60;57.30
19847;DHT22;10084;50.518;8.588;2022-09-09T17:35:58;19.50;57.40